createdAt,value
2019-03-23T00:00:15.089Z,11.03
2019-03-23T00:02:44.907Z,10.63
2019-03-23T00:05:14.968Z,11.68
2019-03-23T00:07:46.640Z,13.08
2019-03-23T00:10:16.561Z,16.40
2019-03-23T00:12:46.463Z,16.48
2019-03-23T00:15:17.494Z,12.93
2019-03-23T00:17:47.347Z,13.30
2019-03-23T00:20:17.164Z,13.72
2019-03-23T00:22:47.123Z,16.65
2019-03-23T00:25:16.972Z,15.40
2019-03-23T00:27:46.740Z,15.03
2019-03-23T00:30:17.169Z,17.23
2019-03-23T00:32:46.984Z,12.88
2019-03-23T00:35:16.774Z,15.00
2019-03-23T00:37:46.628Z,16.23
2019-03-23T00:40:16.378Z,14.28
2019-03-23T00:42:47.458Z,13.43
2019-03-23T00:45:19.226Z,13.10
2019-03-23T00:50:18.046Z,16.40
2019-03-23T00:52:47.890Z,11.70
2019-03-23T00:55:17.602Z,14.95
2019-03-23T00:57:47.386Z,14.58
2019-03-23T01:00:17.939Z,11.18
2019-03-23T01:02:47.850Z,13.22
2019-03-23T01:05:17.648Z,12.45
2019-03-23T01:07:47.410Z,15.65
2019-03-23T01:10:17.242Z,10.17
2019-03-23T01:12:47.007Z,10.10
2019-03-23T01:15:16.785Z,15.20
2019-03-23T01:17:46.531Z,13.38
2019-03-23T01:20:16.753Z,8.98
2019-03-23T01:22:46.455Z,12.33
2019-03-23T01:25:16.325Z,12.95
2019-03-23T01:27:46.124Z,15.50
2019-03-23T01:30:16.747Z,14.30
2019-03-23T01:32:46.606Z,17.65
2019-03-23T01:35:18.389Z,17.97
2019-03-23T01:37:48.131Z,16.70
2019-03-23T01:40:17.871Z,22.35
2019-03-23T01:42:47.619Z,13.13
2019-03-23T01:45:17.407Z,11.03
2019-03-23T01:47:47.157Z,8.70
2019-03-23T01:50:16.913Z,11.45
2019-03-23T01:52:47.067Z,10.45
2019-03-23T01:55:16.902Z,13.43
2019-03-23T01:57:50.927Z,12.78
2019-03-23T02:00:18.641Z,11.45
2019-03-23T02:02:48.342Z,13.93
2019-03-23T02:05:18.642Z,11.12
2019-03-23T02:07:48.373Z,11.53
2019-03-23T02:10:18.121Z,13.62
2019-03-23T02:12:48.065Z,13.48
2019-03-23T02:15:17.896Z,12.98
2019-03-23T02:17:47.662Z,13.13
2019-03-23T02:20:17.399Z,10.05
2019-03-23T02:22:47.092Z,12.43
2019-03-23T02:25:16.827Z,12.43
2019-03-23T02:27:46.508Z,13.30
2019-03-23T02:30:16.188Z,14.25
2019-03-23T02:32:45.986Z,14.10
2019-03-23T02:35:15.735Z,12.60
2019-03-23T02:37:45.533Z,12.05
2019-03-23T02:40:15.330Z,17.25
2019-03-23T02:42:45.047Z,20.23
2019-03-23T02:45:15.406Z,22.25
2019-03-23T02:47:45.090Z,33.30
2019-03-23T02:50:14.872Z,24.20
2019-03-23T02:52:44.594Z,22.52
2019-03-23T02:55:14.395Z,25.25
2019-03-23T02:57:44.190Z,17.12
2019-03-23T03:00:14.069Z,35.38
2019-03-23T03:02:43.861Z,36.53
2019-03-23T03:05:13.860Z,33.45
2019-03-23T03:07:44.109Z,30.62
2019-03-23T03:10:18.045Z,29.75
2019-03-23T03:12:47.778Z,49.55
2019-03-23T03:15:17.535Z,34.67
2019-03-23T03:17:47.239Z,49.95
2019-03-23T03:20:17.042Z,53.75
2019-03-23T03:22:46.772Z,64.25
2019-03-23T03:25:16.554Z,78.00
2019-03-23T03:27:46.234Z,79.97
2019-03-23T03:30:16.028Z,80.62
2019-03-23T03:32:45.758Z,90.80
2019-03-23T03:35:15.469Z,90.95
2019-03-23T03:37:55.928Z,110.48
2019-03-23T03:40:16.630Z,132.05
2019-03-23T03:42:46.385Z,161.65
2019-03-23T03:45:22.594Z,163.87
2019-03-23T03:47:51.429Z,178.95
2019-03-23T03:50:21.182Z,170.17
2019-03-23T03:52:50.930Z,172.07
2019-03-23T03:55:20.665Z,184.93
2019-03-23T03:57:50.440Z,174.80
2019-03-23T04:00:20.260Z,175.93
2019-03-23T04:02:50.028Z,170.75
2019-03-23T04:05:19.830Z,174.35
2019-03-23T04:07:49.622Z,174.20
2019-03-23T04:10:19.377Z,161.75
2019-03-23T04:12:49.115Z,184.00
2019-03-23T04:15:18.932Z,186.07
2019-03-23T04:17:48.729Z,188.93
2019-03-23T04:20:18.471Z,181.25
2019-03-23T04:22:48.216Z,174.42
2019-03-23T04:25:17.988Z,210.60
2019-03-23T04:27:47.803Z,203.55
2019-03-23T04:30:17.611Z,201.40
2019-03-23T04:32:47.428Z,218.75
2019-03-23T04:35:17.239Z,215.70
2019-03-23T04:37:46.931Z,203.85
2019-03-23T04:40:16.672Z,224.50
2019-03-23T04:42:46.378Z,192.77
2019-03-23T04:45:16.290Z,210.80
2019-03-23T04:47:46.051Z,208.47
2019-03-23T04:50:15.785Z,213.05
2019-03-23T04:52:45.461Z,210.00
2019-03-23T04:55:15.316Z,219.28
2019-03-23T04:57:45.068Z,215.57
2019-03-23T05:00:15.364Z,227.82
2019-03-23T05:02:45.121Z,231.63
2019-03-23T05:05:14.884Z,213.10
2019-03-23T05:07:44.574Z,219.80
2019-03-23T05:10:14.447Z,225.87
2019-03-23T05:12:44.238Z,220.37
2019-03-23T05:15:14.054Z,223.20
2019-03-23T05:17:43.832Z,199.50
2019-03-23T05:20:22.570Z,230.07
2019-03-23T05:22:52.321Z,233.63
2019-03-23T05:25:26.142Z,216.95
2019-03-23T05:27:55.910Z,241.33
2019-03-23T05:30:28.056Z,218.05
2019-03-23T05:32:57.774Z,229.10
2019-03-23T05:35:27.548Z,228.52
2019-03-23T05:37:57.249Z,246.13
2019-03-23T05:40:26.978Z,241.88
2019-03-23T05:42:57.344Z,225.87
2019-03-23T05:45:27.089Z,221.90
2019-03-23T05:47:56.762Z,242.93
2019-03-23T05:50:26.541Z,225.53
2019-03-23T05:52:56.335Z,237.45
2019-03-23T05:55:26.486Z,240.00
2019-03-23T05:57:56.154Z,241.33
2019-03-23T06:00:25.931Z,225.18
2019-03-23T06:02:55.744Z,245.70
2019-03-23T06:05:25.459Z,237.82
2019-03-23T06:07:55.093Z,238.72
2019-03-23T06:10:24.899Z,231.47
2019-03-23T06:12:54.708Z,238.57
2019-03-23T06:15:24.423Z,219.00
2019-03-23T06:17:54.195Z,239.02
2019-03-23T06:20:24.110Z,228.65
2019-03-23T06:22:54.382Z,228.85
2019-03-23T06:25:24.085Z,236.75
2019-03-23T06:27:56.154Z,234.85
2019-03-23T06:30:25.259Z,256.82
2019-03-23T06:32:54.989Z,265.00
2019-03-23T06:35:24.672Z,220.93
2019-03-23T06:37:54.350Z,235.53
2019-03-23T06:40:24.246Z,225.07
2019-03-23T06:42:59.627Z,234.22
2019-03-23T06:45:28.291Z,212.20
2019-03-23T06:47:58.008Z,227.53
2019-03-23T06:50:27.769Z,224.82
2019-03-23T06:52:57.450Z,226.07
2019-03-23T06:55:27.182Z,211.95
2019-03-23T06:57:57.033Z,229.63
2019-03-23T07:00:26.784Z,206.80
2019-03-23T07:02:56.474Z,240.28
2019-03-23T07:05:26.256Z,237.27
2019-03-23T07:07:55.983Z,217.80
2019-03-23T07:10:25.678Z,232.15
2019-03-23T07:12:55.557Z,215.65
2019-03-23T07:15:25.306Z,220.95
2019-03-23T07:17:55.030Z,207.22
2019-03-23T07:20:24.752Z,219.15
2019-03-23T07:22:54.966Z,235.05
2019-03-23T07:25:24.834Z,226.10
2019-03-23T07:27:56.131Z,226.20
2019-03-23T07:30:25.930Z,219.53
2019-03-23T07:32:55.743Z,212.23
2019-03-23T07:35:25.533Z,200.70
2019-03-23T07:37:55.267Z,188.85
2019-03-23T07:40:25.065Z,187.62
2019-03-23T07:42:54.793Z,194.65
2019-03-23T07:45:24.683Z,192.35
2019-03-23T07:47:54.638Z,212.00
2019-03-23T07:50:24.357Z,193.02
2019-03-23T07:52:54.383Z,207.83
2019-03-23T07:55:26.296Z,222.95
2019-03-23T07:57:56.753Z,216.88
2019-03-23T08:00:26.534Z,188.30
2019-03-23T08:02:56.349Z,207.80
2019-03-23T08:05:26.148Z,214.35
2019-03-23T08:07:55.987Z,184.10
2019-03-23T08:10:32.992Z,203.10
2019-03-23T08:13:02.915Z,194.43
2019-03-23T08:15:32.620Z,194.17
2019-03-23T08:18:02.443Z,196.68
2019-03-23T08:20:32.155Z,178.27
2019-03-23T08:23:01.964Z,181.67
2019-03-23T08:25:31.786Z,170.10
2019-03-23T08:28:01.637Z,186.28
2019-03-23T08:30:31.313Z,185.88
2019-03-23T08:33:01.179Z,184.55
2019-03-23T08:35:30.934Z,173.57
2019-03-23T08:38:00.648Z,175.38
2019-03-23T08:40:30.479Z,187.75
2019-03-23T08:43:00.207Z,194.82
2019-03-23T08:45:30.357Z,195.25
2019-03-23T08:48:00.145Z,198.93
2019-03-23T08:50:29.974Z,202.13
2019-03-23T08:52:59.746Z,206.55
2019-03-23T08:55:29.624Z,194.90
2019-03-23T08:57:59.701Z,181.72
2019-03-23T09:00:29.549Z,185.63
2019-03-23T09:02:59.333Z,205.50
2019-03-23T09:05:29.318Z,189.22
2019-03-23T09:07:59.209Z,215.97
2019-03-23T09:10:29.036Z,216.95
2019-03-23T09:12:58.863Z,196.45
2019-03-23T09:15:29.018Z,175.62
2019-03-23T09:17:58.829Z,170.97
2019-03-23T09:20:29.670Z,162.15
2019-03-23T09:23:00.672Z,167.68
2019-03-23T09:25:30.613Z,160.03
2019-03-23T09:28:00.398Z,155.60
2019-03-23T09:30:30.310Z,156.10
2019-03-23T09:33:00.131Z,181.25
2019-03-23T09:35:29.851Z,155.10
2019-03-23T09:37:59.659Z,146.50
2019-03-23T09:40:29.511Z,148.93
2019-03-23T09:42:59.288Z,134.55
2019-03-23T09:45:29.146Z,134.20
2019-03-23T09:47:58.958Z,149.65
2019-03-23T09:50:31.197Z,140.80
2019-03-23T09:53:05.174Z,134.87
2019-03-23T09:55:35.260Z,141.62
2019-03-23T09:58:08.455Z,138.07
2019-03-23T10:00:38.248Z,117.77
2019-03-23T10:03:09.633Z,110.25
2019-03-23T10:05:39.335Z,115.47
2019-03-23T10:08:09.219Z,120.73
2019-03-23T10:10:42.439Z,129.10
2019-03-23T10:13:12.135Z,116.50
2019-03-23T10:15:41.868Z,116.25
2019-03-23T10:18:11.650Z,117.83
2019-03-23T10:20:41.384Z,113.83
2019-03-23T10:23:13.179Z,108.63
2019-03-23T10:25:43.044Z,110.53
2019-03-23T10:28:12.833Z,107.23
2019-03-23T10:30:42.546Z,111.70
2019-03-23T10:33:12.267Z,101.05
2019-03-23T10:35:42.074Z,109.90
2019-03-23T10:38:11.789Z,116.87
2019-03-23T10:40:46.848Z,113.75
2019-03-23T10:43:16.570Z,116.07
2019-03-23T10:45:46.337Z,117.15
2019-03-23T10:48:16.499Z,113.17
2019-03-23T10:50:46.590Z,109.47
2019-03-23T10:53:22.957Z,116.87
2019-03-23T10:55:47.727Z,110.67
2019-03-23T10:58:17.503Z,111.80
2019-03-23T11:00:47.277Z,113.77
2019-03-23T11:03:17.027Z,118.40
2019-03-23T11:05:46.803Z,121.40
2019-03-23T11:08:16.488Z,126.03
2019-03-23T11:10:46.258Z,108.17
2019-03-23T11:13:16.029Z,102.27
2019-03-23T11:15:45.753Z,108.53
2019-03-23T11:18:15.526Z,114.73
2019-03-23T11:20:45.190Z,119.43
2019-03-23T11:23:17.823Z,125.80
2019-03-23T11:25:48.127Z,117.77
2019-03-23T11:28:17.811Z,123.93
2019-03-23T11:30:47.623Z,117.03
2019-03-23T11:33:17.378Z,126.50
2019-03-23T11:35:57.280Z,115.13
2019-03-23T11:38:18.712Z,124.33
2019-03-23T11:40:52.924Z,124.80
2019-03-23T11:43:19.797Z,132.13
2019-03-23T11:45:50.235Z,123.47
2019-03-23T11:48:19.964Z,128.17
2019-03-23T11:50:49.663Z,129.30
2019-03-23T11:53:20.215Z,114.37
2019-03-23T11:55:50.178Z,123.57
2019-03-23T11:58:19.954Z,135.07
2019-03-23T12:00:49.812Z,122.53
2019-03-23T12:03:19.708Z,134.23
2019-03-23T12:05:49.661Z,131.47
2019-03-23T12:08:19.377Z,138.87
2019-03-23T12:10:49.144Z,133.10
2019-03-23T12:13:18.845Z,134.37
2019-03-23T12:15:48.771Z,125.43
2019-03-23T12:18:18.568Z,115.77
2019-03-23T12:20:48.786Z,122.77
2019-03-23T12:23:18.612Z,111.67
2019-03-23T12:25:48.475Z,112.50
2019-03-23T12:28:18.208Z,106.53
2019-03-23T12:30:48.031Z,137.67
2019-03-23T12:33:17.775Z,107.97
2019-03-23T12:35:47.490Z,106.70
2019-03-23T12:38:17.207Z,106.97
2019-03-23T12:40:46.951Z,112.00
2019-03-23T12:43:16.673Z,112.70
2019-03-23T12:45:46.409Z,118.70
2019-03-23T12:48:17.211Z,118.00
2019-03-23T12:50:46.901Z,113.77
2019-03-23T12:53:16.605Z,116.47
2019-03-23T12:55:46.393Z,114.67
2019-03-23T12:58:16.124Z,121.53
2019-03-23T13:00:45.944Z,108.03
2019-03-23T13:03:15.645Z,102.33
2019-03-23T13:05:45.517Z,98.87
2019-03-23T13:08:16.107Z,107.53
2019-03-23T13:10:46.309Z,104.47
2019-03-23T13:13:16.054Z,110.90
2019-03-23T13:15:47.624Z,105.67
2019-03-23T13:18:26.929Z,112.73
2019-03-23T13:20:48.994Z,101.20
2019-03-23T13:23:18.713Z,97.03
2019-03-23T13:25:48.446Z,103.27
2019-03-23T13:28:18.320Z,104.27
2019-03-23T13:30:48.116Z,105.87
2019-03-23T13:33:17.864Z,99.40
2019-03-23T13:35:47.574Z,88.43
2019-03-23T13:38:17.357Z,83.47
2019-03-23T13:40:49.450Z,87.30
2019-03-23T13:43:19.210Z,77.50
2019-03-23T13:45:49.033Z,80.73
2019-03-23T13:48:27.626Z,81.37
2019-03-23T13:50:57.789Z,106.97
2019-03-23T13:53:27.643Z,83.73
2019-03-23T13:55:57.346Z,82.70
2019-03-23T13:58:27.142Z,79.97
2019-03-23T14:00:56.830Z,79.47
2019-03-23T14:03:26.590Z,85.67
2019-03-23T14:06:00.447Z,86.70
2019-03-23T14:08:30.310Z,85.43
2019-03-23T14:11:00.102Z,81.33
2019-03-23T14:13:34.474Z,89.30
2019-03-23T14:16:04.385Z,87.73
2019-03-23T14:18:41.734Z,82.90
2019-03-23T14:21:11.716Z,81.80
2019-03-23T14:23:41.474Z,82.17
2019-03-23T14:26:11.210Z,83.30
2019-03-23T14:28:49.861Z,83.17
2019-03-23T14:31:19.642Z,86.67
2019-03-23T14:33:49.430Z,76.80
2019-03-23T14:36:19.166Z,91.77
2019-03-23T14:38:48.990Z,85.33
2019-03-23T14:41:18.786Z,82.37
2019-03-23T14:43:48.620Z,83.27
2019-03-23T14:46:18.362Z,82.90
2019-03-23T14:48:48.221Z,75.23
2019-03-23T14:51:17.988Z,79.40
2019-03-23T14:53:47.814Z,79.67
2019-03-23T14:56:17.673Z,85.37
2019-03-23T14:58:48.307Z,82.37
2019-03-23T15:01:18.082Z,71.10
2019-03-23T15:03:48.520Z,81.43
2019-03-23T15:06:18.299Z,85.00
2019-03-23T15:08:48.202Z,82.30
2019-03-23T15:11:18.448Z,77.30
2019-03-23T15:13:48.335Z,79.20
2019-03-23T15:16:18.115Z,73.50
2019-03-23T15:18:48.031Z,65.90
2019-03-23T15:21:17.752Z,87.53
2019-03-23T15:23:47.563Z,75.73
2019-03-23T15:26:17.254Z,68.20
2019-03-23T15:28:47.125Z,75.60
2019-03-23T15:31:17.633Z,70.53
2019-03-23T15:33:47.417Z,77.90
2019-03-23T15:36:18.109Z,78.17
2019-03-23T15:38:47.978Z,78.97
2019-03-23T15:41:17.725Z,72.80
2019-03-23T15:43:47.479Z,67.27
2019-03-23T15:46:17.247Z,77.23
2019-03-23T15:48:46.956Z,79.80
2019-03-23T15:51:16.778Z,82.67
2019-03-23T15:53:46.641Z,82.13
2019-03-23T15:56:16.600Z,93.30
2019-03-23T15:58:46.742Z,109.37
2019-03-23T16:01:18.266Z,104.10
2019-03-23T16:03:48.193Z,84.10
2019-03-23T16:06:17.917Z,76.83
2019-03-23T16:08:48.483Z,81.97
2019-03-23T16:11:18.438Z,90.80
2019-03-23T16:13:48.390Z,88.93
2019-03-23T16:16:18.285Z,86.43
2019-03-23T16:18:48.145Z,86.83
2019-03-23T16:21:19.267Z,82.40
2019-03-23T16:23:49.559Z,84.50
2019-03-23T16:26:19.272Z,81.80
2019-03-23T16:28:50.089Z,87.37
2019-03-23T16:31:20.492Z,81.63
2019-03-23T16:33:50.357Z,82.03
2019-03-23T16:36:20.313Z,81.50
2019-03-23T16:38:50.653Z,85.70
2019-03-23T16:41:20.470Z,76.67
2019-03-23T16:43:50.196Z,78.20
2019-03-23T16:46:20.944Z,84.47
2019-03-23T16:48:50.776Z,76.90
2019-03-23T16:51:20.508Z,78.73
2019-03-23T16:53:50.260Z,83.40
2019-03-23T16:56:20.045Z,83.07
2019-03-23T16:58:49.879Z,84.60
2019-03-23T17:01:19.688Z,88.73
2019-03-23T17:03:49.479Z,90.37
2019-03-23T17:06:19.288Z,88.30
2019-03-23T17:08:49.213Z,87.73
2019-03-23T17:11:19.319Z,83.17
2019-03-23T17:13:49.123Z,74.53
2019-03-23T17:16:19.158Z,83.73
2019-03-23T17:18:49.012Z,83.23
2019-03-23T17:21:18.923Z,81.83
2019-03-23T17:23:48.651Z,86.17
2019-03-23T17:26:18.390Z,96.53
2019-03-23T17:28:48.184Z,81.43
2019-03-23T17:31:18.032Z,95.97
2019-03-23T17:33:47.850Z,114.83
2019-03-23T17:36:17.666Z,95.47
2019-03-23T17:38:50.792Z,86.43
2019-03-23T18:08:27.550Z,84.67
2019-03-23T18:10:59.346Z,89.60
2019-03-23T18:13:30.024Z,85.93
2019-03-23T18:15:59.980Z,87.63
2019-03-23T18:18:30.033Z,98.13
2019-03-23T18:21:01.982Z,93.80
2019-03-23T18:23:31.831Z,97.97
2019-03-23T18:26:03.106Z,92.47
2019-03-23T18:28:37.641Z,93.07
2019-03-23T18:31:07.355Z,85.47
2019-03-23T18:33:38.104Z,86.17
2019-03-23T18:36:08.018Z,97.23
2019-03-23T18:38:37.760Z,90.23
2019-03-23T18:41:09.393Z,99.60
2019-03-23T18:46:55.927Z,45.57
2019-03-23T20:06:33.073Z,108.97
2019-03-23T20:09:04.003Z,112.10
2019-03-23T20:11:33.910Z,108.87
2019-03-23T20:14:03.839Z,107.73
2019-03-23T20:16:33.819Z,92.37
2019-03-23T20:19:03.639Z,97.67
2019-03-23T20:21:33.529Z,102.20
2019-03-23T20:24:03.472Z,99.13
2019-03-23T20:26:33.595Z,94.83
2019-03-23T20:29:05.918Z,94.20
2019-03-23T20:31:35.736Z,91.77
2019-03-23T20:34:05.491Z,99.37
2019-03-23T20:36:35.368Z,86.02
2019-03-23T20:39:07.128Z,94.20
2019-03-23T20:41:37.349Z,102.63
2019-03-23T20:44:09.766Z,96.03
2019-03-23T20:46:38.874Z,104.47
2019-03-23T20:49:08.661Z,103.47
2019-03-23T20:51:38.444Z,93.33
2019-03-23T20:54:08.212Z,91.67
2019-03-23T20:56:38.005Z,93.70
2019-03-23T20:59:07.973Z,96.57
2019-03-23T21:01:37.825Z,89.73
2019-03-23T21:04:07.647Z,99.93
2019-03-23T21:06:37.491Z,87.30
2019-03-23T21:09:08.001Z,93.20
2019-03-23T21:11:37.857Z,93.40
2019-03-23T21:14:07.855Z,92.27
2019-03-23T21:16:37.707Z,99.00
2019-03-23T21:19:07.525Z,99.40
2019-03-23T21:21:37.486Z,95.77
2019-03-23T21:24:07.261Z,101.47
2019-03-23T21:26:37.257Z,94.40
2019-03-23T21:29:07.103Z,94.70
2019-03-23T21:31:37.231Z,97.80
2019-03-23T21:34:07.139Z,100.97
2019-03-23T21:36:37.106Z,107.37
2019-03-23T21:39:08.610Z,94.37
2019-03-23T21:41:39.026Z,92.53
2019-03-23T21:44:11.515Z,101.57
2019-03-23T21:46:41.378Z,102.50
2019-03-23T21:49:11.663Z,93.33
2019-03-23T21:51:41.517Z,104.77
2019-03-23T21:54:11.937Z,105.03
2019-03-23T21:56:42.076Z,97.87
2019-03-23T21:59:12.005Z,97.67
2019-03-23T22:01:44.233Z,96.30
2019-03-23T22:04:15.025Z,101.57
2019-03-23T22:06:47.069Z,100.92
2019-03-23T22:09:17.578Z,101.93
2019-03-23T22:11:47.743Z,91.17
2019-03-23T22:14:17.751Z,92.03
2019-03-23T22:16:47.615Z,96.12
2019-03-23T22:19:21.214Z,91.83
2019-03-23T22:21:51.023Z,98.30
2019-03-23T22:24:22.447Z,107.75
2019-03-23T22:26:52.433Z,98.93
2019-03-23T22:29:22.812Z,104.85
2019-03-23T22:31:53.120Z,101.18
2019-03-23T22:34:23.304Z,100.10
2019-03-23T22:36:53.426Z,100.43
2019-03-23T22:39:23.386Z,100.47
2019-03-23T22:41:53.522Z,99.03
2019-03-23T22:44:23.368Z,103.65
2019-03-23T22:46:53.269Z,106.83
2019-03-23T22:49:23.524Z,99.17
2019-03-23T22:51:56.407Z,111.00
2019-03-23T22:54:26.337Z,97.90
2019-03-23T22:56:56.183Z,106.32
2019-03-23T22:59:26.056Z,93.53
2019-03-23T23:01:56.125Z,96.33
2019-03-23T23:04:26.340Z,93.05
2019-03-23T23:06:56.185Z,98.73
2019-03-23T23:09:27.740Z,92.93
2019-03-23T23:11:57.976Z,90.33
2019-03-23T23:14:27.928Z,90.10
2019-03-23T23:16:57.815Z,101.73
2019-03-23T23:19:28.299Z,93.20
2019-03-23T23:21:58.211Z,91.93
2019-03-23T23:24:28.385Z,99.00
2019-03-23T23:26:59.167Z,100.07
2019-03-23T23:29:29.627Z,92.80
2019-03-23T23:31:59.454Z,92.37
2019-03-23T23:34:29.790Z,100.93
2019-03-23T23:37:07.016Z,95.77
2019-03-23T23:39:35.106Z,95.33
2019-03-23T23:42:06.530Z,100.40
2019-03-23T23:44:50.335Z,96.27
2019-03-23T23:47:27.266Z,95.30
2019-03-23T23:49:57.557Z,94.87
2019-03-23T23:52:33.190Z,95.17
2019-03-23T23:55:11.970Z,97.57
2019-03-23T23:57:50.271Z,103.37
